Date,TemperatureHighF,TemperatureAvgF,TemperatureLowF,DewpointHighF,DewpointAvgF,DewpointLowF,HumidityHigh,HumidityAvg,HumidityLow,PressureMaxIn,PressureMinIn,WindSpeedMaxMPH,WindSpeedAvgMPH,GustSpeedMaxMPH,PrecipitationSumIn
2014-1-1,37.8,23.9,9.1,25.2,15.4,0.0,78,70,55,30.31,30.04,17,5,17,0.00
2014-1-2,25.0,9.5,1.2,4.7,-3.3,-9.1,67,56,35,30.48,30.30,15,4,15,0.00
2014-1-3,38.7,23.1,2.7,24.6,10.8,-7.1,66,59,52,30.47,29.82,30,11,30,0.01
2014-1-4,48.0,31.4,16.2,30.1,20.8,8.8,76,65,49,30.09,29.78,27,8,27,0.00
2014-1-5,16.2,9.9,-1.1,8.8,-3.9,-24.6,76,54,33,30.51,30.03,21,8,21,0.00
2014-1-6,8.1,-2.1,-9.8,-14.1,-22.4,-31.8,53,37,27,30.58,30.42,23,6,23,0.00
2014-1-7,39.4,19.5,-2.6,21.9,5.1,-17.2,70,53,43,30.41,30.10,21,5,21,0.00
2014-1-8,35.6,26.5,19.0,20.6,15.0,7.9,72,62,48,30.36,30.21,15,6,15,0.00
2014-1-9,32.4,23.6,17.4,31.6,18.4,7.7,97,80,62,30.34,30.03,12,4,12,0.00
2014-1-10,42.6,37.1,32.5,42.4,36.6,31.8,99,98,97,30.03,29.58,14,5,14,0.06
2014-1-11,48.9,37.0,29.3,36.2,31.6,26.4,99,82,55,29.97,29.69,23,6,23,0.01
2014-1-12,65.3,47.7,32.2,38.2,31.9,25.4,81,57,35,29.93,29.54,35,11,35,0.00
2014-1-13,51.8,41.1,34.5,34.5,30.1,24.5,88,67,37,29.93,29.69,21,6,21,0.00
2014-1-14,48.7,38.7,24.3,34.1,19.0,1.5,72,48,22,30.25,29.80,30,9,30,0.00
2014-1-15,37.4,28.1,17.1,24.1,12.2,0.1,66,52,25,30.27,29.85,18,6,18,0.00
2014-1-16,48.7,38.4,23.5,30.2,20.5,6.5,82,50,29,30.08,29.81,40,14,40,0.06
2014-1-17,36.0,24.8,17.6,8.7,-0.2,-6.9,54,34,22,30.21,30.03,29,11,29,0.00
2014-1-18,52.0,35.3,20.8,30.3,20.3,7.3,77,55,40,30.15,29.77,42,12,42,0.17
2014-1-19,64.2,40.3,17.8,28.9,22.6,12.0,86,55,21,30.15,29.84,21,6,21,0.00
2014-1-20,56.3,41.2,20.7,32.7,25.8,9.6,66,55,39,30.30,29.88,24,5,24,0.00
2014-1-21,20.5,13.7,3.9,11.3,-5.2,-13.7,68,43,24,30.49,30.15,17,6,17,0.00
2014-1-22,39.9,25.7,8.4,18.4,5.4,-15.6,64,43,23,30.51,30.10,33,7,33,0.00
2014-1-23,20.5,7.9,1.8,-6.7,-12.3,-16.2,55,39,23,30.82,30.51,17,5,17,0.00
2014-1-24,42.8,25.5,3.6,21.4,3.0,-12.6,55,39,24,30.66,29.82,34,11,34,0.00
2014-1-25,47.8,41.0,29.8,36.5,27.2,14.6,86,60,29,30.06,29.80,24,8,24,0.00
2014-1-26,60.8,43.0,20.5,34.8,25.0,-7.4,84,53,25,30.22,29.69,24,10,36,0.02
2014-1-27,20.7,12.3,5.5,-4.3,-13.9,-20.7,40,29,23,30.50,29.92,21,6,21,0.00
2014-1-28,21.9,13.7,0.1,-3.8,-8.7,-13.2,61,37,24,29.92,29.92,10,3,10,0.00
2014-1-29,19.8,19.8,19.8,-8.0,-8.0,-8.0,28,28,28,29.92,29.92,5,5,10,0.00
2014-1-30,48.0,22.8,19.8,18.5,-5.1,-8.0,32,28,28,29.92,29.92,14,6,14,0.00
2014-1-31,30.2,23.2,20.5,21.0,16.3,7.9,97,76,49,29.92,29.92,11,4,18,0.00